createdAt,value
2023-03-16T00:00:14.023Z,62.50
2023-03-16T00:02:44.997Z,59.40
2023-03-16T00:05:13.728Z,60.80
2023-03-16T00:07:43.608Z,61.70
2023-03-16T00:10:12.686Z,58.50
2023-03-16T00:12:44.010Z,58.70
2023-03-16T00:15:14.017Z,59.30
2023-03-16T00:17:48.517Z,59.50
2023-03-16T00:20:23.203Z,56.90
2023-03-16T00:22:51.599Z,54.30
2023-03-16T00:25:19.738Z,58.90
2023-03-16T00:27:48.609Z,57.70
2023-03-16T00:30:17.277Z,59.80
2023-03-16T00:32:46.131Z,56.10
2023-03-16T00:35:15.934Z,58.00
2023-03-16T00:37:44.604Z,56.30
2023-03-16T00:40:14.217Z,61.80
2023-03-16T00:42:42.526Z,62.60
2023-03-16T00:45:18.099Z,69.80
2023-03-16T00:47:46.909Z,62.80
2023-03-16T00:50:15.780Z,67.80
2023-03-16T00:52:44.383Z,78.90
2023-03-16T00:55:13.432Z,103.50
2023-03-16T00:57:45.088Z,101.40
2023-03-16T01:00:16.896Z,108.80
2023-03-16T01:02:50.269Z,125.20
2023-03-16T01:05:20.379Z,109.60
2023-03-16T01:07:49.084Z,96.70
2023-03-16T01:10:17.755Z,102.00
2023-03-16T01:12:47.037Z,93.50
2023-03-16T01:15:16.267Z,97.80
2023-03-16T01:17:44.589Z,95.10
2023-03-16T01:20:15.784Z,85.50
2023-03-16T01:22:45.418Z,82.70
2023-03-16T01:25:14.046Z,86.40
2023-03-16T01:27:43.514Z,83.10
2023-03-16T01:30:13.016Z,79.90
2023-03-16T01:32:42.156Z,75.10
2023-03-16T01:35:13.964Z,79.00
2023-03-16T01:37:42.481Z,76.20
2023-03-16T01:40:17.015Z,71.90
2023-03-16T01:42:47.421Z,64.70
2023-03-16T01:46:04.501Z,65.00
2023-03-16T01:48:51.861Z,60.60
2023-03-16T01:52:04.471Z,63.10
2023-03-16T01:55:15.542Z,64.00
2023-03-16T01:57:46.148Z,55.60
2023-03-16T02:00:19.973Z,61.00
2023-03-16T02:03:17.001Z,55.60
2023-03-16T02:06:13.137Z,54.60
2023-03-16T02:08:45.488Z,59.50
2023-03-16T02:11:18.252Z,60.00
2023-03-16T02:14:19.045Z,56.20
2023-03-16T02:16:47.851Z,54.40
2023-03-16T02:19:32.831Z,51.30
2023-03-16T02:22:06.509Z,40.70
2023-03-16T02:24:36.666Z,39.60
2023-03-16T02:27:10.554Z,35.90
2023-03-16T02:29:55.424Z,33.40
2023-03-16T02:32:24.766Z,34.50
2023-03-16T02:34:53.032Z,33.80
2023-03-16T02:37:22.794Z,33.00
2023-03-16T02:39:51.440Z,34.20
2023-03-16T02:42:22.104Z,34.60
2023-03-16T02:44:54.428Z,32.00
2023-03-16T02:47:35.298Z,32.90
2023-03-16T02:50:06.778Z,31.50
2023-03-16T02:52:36.002Z,28.10
2023-03-16T02:55:05.872Z,29.70
2023-03-16T02:57:35.090Z,28.90
2023-03-16T03:00:19.393Z,32.90
2023-03-16T03:02:50.271Z,29.40
2023-03-16T03:05:18.471Z,28.90
2023-03-16T03:07:49.396Z,30.60
2023-03-16T03:10:18.126Z,30.90
2023-03-16T03:12:49.658Z,30.10
2023-03-16T03:15:20.206Z,31.30
2023-03-16T03:18:15.493Z,33.10
2023-03-16T03:20:43.705Z,31.80
2023-03-16T03:23:11.952Z,31.80
2023-03-16T03:25:43.659Z,34.60
2023-03-16T03:28:11.956Z,36.00
2023-03-16T03:30:40.588Z,36.80
2023-03-16T03:33:08.822Z,38.40
2023-03-16T03:35:38.860Z,36.30
2023-03-16T03:38:08.292Z,34.90
2023-03-16T03:40:37.438Z,44.50
2023-03-16T03:43:06.486Z,39.40
2023-03-16T03:45:37.645Z,44.50
2023-03-16T03:48:07.475Z,49.80
2023-03-16T03:50:38.522Z,50.10
2023-03-16T03:53:26.321Z,50.70
2023-03-16T03:56:11.856Z,48.40
2023-03-16T03:58:41.342Z,42.80
2023-03-16T04:01:10.070Z,43.30
2023-03-16T04:03:38.921Z,41.20
2023-03-16T04:06:08.282Z,39.00
2023-03-16T04:08:37.386Z,41.00
2023-03-16T04:11:12.846Z,39.80
2023-03-16T04:13:41.318Z,38.30
2023-03-16T04:16:10.598Z,37.10
2023-03-16T04:18:45.313Z,38.60
2023-03-16T04:21:17.701Z,33.40
2023-03-16T04:23:48.562Z,35.50
2023-03-16T04:26:18.051Z,34.80
2023-03-16T04:28:47.555Z,34.80
2023-03-16T04:31:20.027Z,37.30
2023-03-16T04:33:50.876Z,34.00
2023-03-16T04:36:19.413Z,38.00
2023-03-16T04:38:49.940Z,38.50
2023-03-16T04:41:18.673Z,44.40
2023-03-16T04:43:55.467Z,42.60
2023-03-16T04:46:26.893Z,45.80
2023-03-16T04:48:58.605Z,48.70
2023-03-16T04:51:28.743Z,46.20
2023-03-16T04:54:09.736Z,45.40
2023-03-16T04:56:42.808Z,45.60
2023-03-16T04:59:20.642Z,45.70
2023-03-16T05:01:54.491Z,49.50
2023-03-16T05:04:24.771Z,49.00
2023-03-16T05:06:53.204Z,46.80
2023-03-16T05:11:54.246Z,46.30
2023-03-16T05:14:25.547Z,53.50
2023-03-16T05:17:10.577Z,49.20
2023-03-16T05:19:40.122Z,49.70
2023-03-16T05:22:08.957Z,45.90
2023-03-16T05:24:39.447Z,49.80
2023-03-16T05:27:08.582Z,46.30
2023-03-16T05:29:37.882Z,48.90
2023-03-16T05:32:06.745Z,45.70
2023-03-16T05:34:37.131Z,45.90
2023-03-16T05:37:06.335Z,45.00
2023-03-16T05:39:35.698Z,50.40
2023-03-16T05:42:05.980Z,50.10
2023-03-16T05:44:44.966Z,54.20
2023-03-16T05:47:21.166Z,54.40
2023-03-16T05:49:53.749Z,57.90
2023-03-16T05:52:34.856Z,50.60
2023-03-16T05:55:09.750Z,52.40
2023-03-16T05:57:39.401Z,48.90
2023-03-16T06:00:12.669Z,49.00
2023-03-16T06:02:44.192Z,43.70
2023-03-16T06:05:12.620Z,44.60
2023-03-16T06:07:42.946Z,48.20
2023-03-16T06:10:17.787Z,50.80
2023-03-16T06:12:47.070Z,49.00
2023-03-16T06:15:15.287Z,53.90
2023-03-16T06:17:48.936Z,47.60
2023-03-16T06:20:18.041Z,44.90
2023-03-16T06:22:46.660Z,46.80
2023-03-16T06:25:16.498Z,45.10
2023-03-16T06:27:47.878Z,47.20
2023-03-16T06:30:18.551Z,47.30
2023-03-16T06:32:48.446Z,44.70
2023-03-16T06:35:16.672Z,50.40
2023-03-16T06:38:01.095Z,50.20
2023-03-16T06:40:43.778Z,45.20
2023-03-16T06:43:13.936Z,47.70
2023-03-16T06:45:46.684Z,51.10
2023-03-16T06:48:15.342Z,50.50
2023-03-16T06:50:46.780Z,48.10
2023-03-16T06:53:16.272Z,40.00
2023-03-16T06:55:45.095Z,42.70
2023-03-16T06:58:14.113Z,42.60
2023-03-16T07:01:13.121Z,39.90
2023-03-16T07:03:42.094Z,36.60
2023-03-16T07:06:17.980Z,38.20
2023-03-16T07:08:46.338Z,35.20
2023-03-16T07:11:15.095Z,34.60
2023-03-16T07:13:44.447Z,36.90
2023-03-16T07:16:14.080Z,38.20
2023-03-16T07:18:45.262Z,35.90
2023-03-16T07:21:15.805Z,34.00
2023-03-16T07:23:44.896Z,34.70
2023-03-16T07:26:15.049Z,36.30
2023-03-16T07:28:50.889Z,35.50
2023-03-16T07:31:20.103Z,36.30
2023-03-16T07:33:48.497Z,40.20
2023-03-16T07:36:22.286Z,38.50
2023-03-16T07:41:25.558Z,35.20
2023-03-16T07:43:54.938Z,35.60
2023-03-16T07:46:28.680Z,36.50
2023-03-16T07:48:57.101Z,38.30
2023-03-16T07:51:25.747Z,40.30
2023-03-16T07:53:54.404Z,37.50
2023-03-16T07:56:33.627Z,39.10
2023-03-16T07:59:14.476Z,40.90
2023-03-16T08:01:43.913Z,43.40
2023-03-16T08:04:12.656Z,40.30
2023-03-16T08:06:43.099Z,41.90
2023-03-16T08:09:11.909Z,39.40
2023-03-16T08:11:41.806Z,41.00
2023-03-16T08:14:11.681Z,39.40
2023-03-16T08:16:58.413Z,40.70
2023-03-16T08:19:31.015Z,38.60
2023-03-16T08:22:02.075Z,44.40
2023-03-16T08:24:36.648Z,48.60
2023-03-16T08:27:06.141Z,48.80
2023-03-16T08:29:35.259Z,49.10
2023-03-16T08:32:04.460Z,51.70
2023-03-16T08:34:40.090Z,48.20
2023-03-16T08:37:09.955Z,44.50
2023-03-16T08:39:44.654Z,44.80
2023-03-16T08:42:16.874Z,45.50
2023-03-16T08:44:53.435Z,44.40
2023-03-16T08:47:23.131Z,53.20
2023-03-16T08:49:52.352Z,42.90
2023-03-16T08:52:22.973Z,45.00
2023-03-16T08:55:02.369Z,44.80
2023-03-16T08:57:33.520Z,44.00
2023-03-16T09:00:01.920Z,42.80
2023-03-16T09:02:31.648Z,42.00
2023-03-16T09:04:59.877Z,44.10
2023-03-16T09:07:28.357Z,42.60
2023-03-16T09:10:05.962Z,42.50
2023-03-16T09:12:36.311Z,40.90
2023-03-16T09:15:06.776Z,38.00
2023-03-16T09:17:39.407Z,43.10
2023-03-16T09:20:21.832Z,41.20
2023-03-16T09:22:51.561Z,36.90
2023-03-16T09:25:20.911Z,39.40
2023-03-16T09:27:50.896Z,39.60
2023-03-16T09:30:19.972Z,36.60
2023-03-16T09:32:50.721Z,37.30
2023-03-16T09:35:19.781Z,38.00
2023-03-16T09:38:05.162Z,34.00
2023-03-16T09:40:36.245Z,36.50
2023-03-16T09:43:26.129Z,43.80
2023-03-16T09:46:31.352Z,36.10
2023-03-16T09:48:59.556Z,35.00
2023-03-16T09:51:47.136Z,38.20
2023-03-16T09:54:27.786Z,41.40
2023-03-16T09:56:56.340Z,36.70
2023-03-16T09:59:24.850Z,36.40
2023-03-16T10:02:15.820Z,37.10
2023-03-16T10:05:08.098Z,39.70
2023-03-16T10:08:03.920Z,39.70
2023-03-16T10:10:49.448Z,36.40
2023-03-16T10:13:22.255Z,36.80
2023-03-16T10:15:51.476Z,33.20
2023-03-16T10:18:28.824Z,37.50
2023-03-16T10:20:58.149Z,40.80
2023-03-16T10:23:26.563Z,37.60
2023-03-16T10:25:55.584Z,38.80
2023-03-16T10:28:28.532Z,41.40
2023-03-16T10:30:59.373Z,39.80
2023-03-16T10:33:34.680Z,35.70
2023-03-16T10:36:34.984Z,38.50
2023-03-16T10:39:05.436Z,37.40
2023-03-16T10:41:38.279Z,38.00
2023-03-16T10:44:14.091Z,36.20
2023-03-16T10:46:51.241Z,36.50
2023-03-16T10:49:36.575Z,33.90
2023-03-16T10:52:12.117Z,33.00
2023-03-16T10:54:40.837Z,35.50
2023-03-16T10:57:25.468Z,37.20
2023-03-16T10:59:55.397Z,39.60
2023-03-16T11:02:31.990Z,33.30
2023-03-16T11:05:11.078Z,34.50
2023-03-16T11:07:58.823Z,35.90
2023-03-16T11:10:36.168Z,33.60
2023-03-16T11:13:09.288Z,38.00
2023-03-16T11:15:48.849Z,36.70
2023-03-16T11:18:36.838Z,32.90
2023-03-16T11:21:18.374Z,37.40
2023-03-16T11:23:49.910Z,33.40
2023-03-16T11:26:25.438Z,36.10
2023-03-16T11:29:02.290Z,33.80
2023-03-16T11:31:39.636Z,35.40
2023-03-16T11:34:16.318Z,34.60
2023-03-16T11:37:25.809Z,33.30
2023-03-16T11:40:17.305Z,31.40
2023-03-16T11:43:00.159Z,31.60
2023-03-16T11:45:43.322Z,33.90
2023-03-16T11:48:24.422Z,39.20
2023-03-16T11:51:08.680Z,36.00
2023-03-16T11:54:03.061Z,32.20
2023-03-16T11:59:25.046Z,32.30
2023-03-16T12:02:15.390Z,34.90
2023-03-16T12:05:19.410Z,35.80
2023-03-16T12:07:51.981Z,32.80
2023-03-16T12:10:29.369Z,36.30
2023-03-16T12:13:31.112Z,33.50
2023-03-16T12:16:15.425Z,33.10
2023-03-16T12:18:49.820Z,34.90
2023-03-16T12:21:39.718Z,38.80
2023-03-16T12:24:14.631Z,36.00
2023-03-16T12:26:43.432Z,34.80
2023-03-16T12:29:37.892Z,30.20
2023-03-16T12:32:38.758Z,35.50
2023-03-16T12:35:47.681Z,31.30
2023-03-16T12:38:32.615Z,31.10
2023-03-16T12:41:46.492Z,32.30
2023-03-16T12:44:23.104Z,33.90
2023-03-16T12:47:02.165Z,35.10
2023-03-16T12:49:34.256Z,40.40
2023-03-16T12:52:10.104Z,36.80
2023-03-16T12:55:12.435Z,34.10
2023-03-16T12:57:42.620Z,39.00
2023-03-16T13:00:12.809Z,32.90
2023-03-16T13:02:49.690Z,35.10
2023-03-16T13:05:19.398Z,32.50
2023-03-16T13:07:50.075Z,34.50
2023-03-16T13:10:23.127Z,32.80
2023-03-16T13:12:52.009Z,33.10
2023-03-16T13:15:21.548Z,31.00
2023-03-16T13:18:11.649Z,33.20
2023-03-16T13:20:48.490Z,35.80
2023-03-16T13:23:26.092Z,33.70
2023-03-16T13:26:05.830Z,30.60
2023-03-16T13:28:36.590Z,32.10
2023-03-16T13:31:07.154Z,30.10
2023-03-16T13:33:37.601Z,29.70
2023-03-16T13:36:06.688Z,33.70
2023-03-16T13:38:37.733Z,34.60
2023-03-16T13:41:11.188Z,30.60
2023-03-16T13:43:44.395Z,30.50
2023-03-16T13:46:21.506Z,31.10
2023-03-16T13:48:50.562Z,33.50
2023-03-16T13:51:21.252Z,29.50
2023-03-16T13:53:51.607Z,29.40
2023-03-16T13:56:23.996Z,32.20
2023-03-16T14:01:26.223Z,31.80
2023-03-16T14:04:13.925Z,29.50
2023-03-16T14:07:01.002Z,29.80
2023-03-16T14:09:34.657Z,27.60
2023-03-16T14:12:03.760Z,27.20
2023-03-16T14:14:41.550Z,29.10
2023-03-16T14:17:15.084Z,27.60
2023-03-16T14:19:51.981Z,27.20
2023-03-16T14:22:24.217Z,26.00
2023-03-16T14:24:54.861Z,26.70
2023-03-16T14:27:39.690Z,30.10
2023-03-16T14:30:15.078Z,26.40
2023-03-16T14:32:56.770Z,29.90
2023-03-16T14:35:28.433Z,25.40
2023-03-16T14:37:57.362Z,27.30
2023-03-16T14:40:27.329Z,31.70
2023-03-16T14:43:00.106Z,27.60
2023-03-16T14:45:34.954Z,32.20
2023-03-16T14:48:18.339Z,28.20
2023-03-16T14:50:52.783Z,26.80
2023-03-16T14:53:22.199Z,47.80
2023-03-16T14:55:54.170Z,34.30
2023-03-16T14:58:24.764Z,32.60
2023-03-16T15:00:53.920Z,29.70
2023-03-16T15:03:34.670Z,43.10
2023-03-16T15:06:03.306Z,44.90
2023-03-16T15:08:33.912Z,31.20
2023-03-16T15:11:06.052Z,29.30
2023-03-16T15:13:40.862Z,29.40
2023-03-16T15:16:11.697Z,31.50
2023-03-16T15:18:40.598Z,31.30
2023-03-16T15:21:14.801Z,29.10
2023-03-16T15:23:43.491Z,27.80
2023-03-16T15:26:14.344Z,38.20
2023-03-16T15:28:43.458Z,35.80
2023-03-16T15:31:16.195Z,34.60
2023-03-16T15:33:46.166Z,27.70
2023-03-16T15:36:16.696Z,24.40
2023-03-16T15:38:49.796Z,26.10
2023-03-16T15:41:18.618Z,29.90
2023-03-16T15:43:48.387Z,30.60
2023-03-16T15:46:18.073Z,29.20
2023-03-16T15:48:46.994Z,26.20
2023-03-16T15:51:27.134Z,27.00
2023-03-16T15:53:59.768Z,28.40
2023-03-16T15:56:53.780Z,23.60
2023-03-16T15:59:27.496Z,25.80
2023-03-16T16:01:58.398Z,24.90
2023-03-16T16:04:27.585Z,27.90
2023-03-16T16:06:57.613Z,22.90
2023-03-16T16:09:45.949Z,24.70
2023-03-16T16:12:53.864Z,22.70
2023-03-16T16:15:37.447Z,24.10
2023-03-16T16:18:32.062Z,22.00
2023-03-16T16:21:18.020Z,24.90
2023-03-16T16:23:48.096Z,28.30
2023-03-16T16:26:55.314Z,26.80
2023-03-16T16:29:30.200Z,25.20
2023-03-16T16:31:59.361Z,23.20
2023-03-16T16:34:32.296Z,23.10
2023-03-16T16:37:01.209Z,24.20
2023-03-16T16:39:31.089Z,26.10
2023-03-16T16:42:01.944Z,24.50
2023-03-16T16:44:34.540Z,22.10
2023-03-16T16:47:21.845Z,23.40
2023-03-16T16:49:52.168Z,24.80
2023-03-16T16:52:21.119Z,24.10
2023-03-16T16:54:49.682Z,27.00
2023-03-16T16:57:18.687Z,23.50
2023-03-16T16:59:48.155Z,24.30
2023-03-16T17:02:31.430Z,23.70
2023-03-16T17:05:01.527Z,20.50
2023-03-16T17:07:33.699Z,22.50
2023-03-16T17:10:25.544Z,21.50
2023-03-16T17:13:29.282Z,21.00
2023-03-16T17:16:10.008Z,20.60
2023-03-16T17:21:32.696Z,22.80
2023-03-16T17:24:09.700Z,23.10
2023-03-16T17:26:42.546Z,20.70
2023-03-16T17:29:25.963Z,22.40
2023-03-16T17:32:02.582Z,20.90
2023-03-16T17:34:35.624Z,21.50
2023-03-16T17:37:10.754Z,22.00
2023-03-16T17:39:39.898Z,22.50
2023-03-16T17:42:16.224Z,21.20
2023-03-16T17:44:48.140Z,22.40
2023-03-16T17:47:21.131Z,20.50
2023-03-16T17:49:52.054Z,20.50
2023-03-16T17:52:27.880Z,22.00
2023-03-16T17:55:00.711Z,23.10
2023-03-16T17:57:32.570Z,23.20
2023-03-16T18:00:01.450Z,22.90
2023-03-16T18:02:49.967Z,24.60
2023-03-16T18:05:24.247Z,25.80
2023-03-16T18:07:54.025Z,20.70
2023-03-16T18:10:42.671Z,21.50
2023-03-16T18:13:27.820Z,21.50
2023-03-16T18:15:59.846Z,20.40
2023-03-16T18:18:37.061Z,19.20
2023-03-16T18:21:09.011Z,21.00
2023-03-16T18:23:39.869Z,18.90
2023-03-16T18:26:09.282Z,19.70
2023-03-16T18:28:38.294Z,19.00
2023-03-16T18:31:07.856Z,19.80
2023-03-16T18:33:39.599Z,20.00
2023-03-16T18:36:20.184Z,20.00
2023-03-16T18:38:55.566Z,18.50
2023-03-16T18:41:33.681Z,16.50
2023-03-16T18:44:14.878Z,18.20
2023-03-16T18:46:45.838Z,17.80
2023-03-16T18:49:19.345Z,19.80
2023-03-16T18:51:50.530Z,17.70
2023-03-16T18:54:32.091Z,16.20
2023-03-16T18:57:01.518Z,17.40
2023-03-16T18:59:30.329Z,15.40
2023-03-16T19:01:58.702Z,19.20
2023-03-16T19:04:30.815Z,17.00
2023-03-16T19:06:59.500Z,16.60
2023-03-16T19:09:29.278Z,17.10
2023-03-16T19:11:59.828Z,17.50
2023-03-16T19:14:31.780Z,14.50
2023-03-16T19:17:05.342Z,16.00
2023-03-16T19:19:34.976Z,15.40
2023-03-16T19:22:10.001Z,14.00
2023-03-16T19:24:51.793Z,15.80
2023-03-16T19:27:25.910Z,15.00
2023-03-16T19:29:56.578Z,12.70
2023-03-16T19:32:25.889Z,16.30
2023-03-16T19:34:58.655Z,11.90
2023-03-16T19:37:30.173Z,12.40
2023-03-16T19:39:59.112Z,13.80
2023-03-16T19:42:29.991Z,13.30
2023-03-16T19:44:58.620Z,12.10
2023-03-16T19:47:33.335Z,13.10
2023-03-16T19:50:02.085Z,12.30
2023-03-16T19:52:32.798Z,16.20
2023-03-16T19:55:01.746Z,9.90
2023-03-16T19:57:31.758Z,9.90
2023-03-16T20:00:06.679Z,10.70
2023-03-16T20:02:40.482Z,12.00
2023-03-16T20:05:16.331Z,12.30
2023-03-16T20:07:44.629Z,22.10
2023-03-16T20:10:18.363Z,19.90
2023-03-16T20:12:58.837Z,18.10
2023-03-16T20:15:38.306Z,19.00
2023-03-16T20:18:06.912Z,19.20
2023-03-16T20:20:35.341Z,18.30
2023-03-16T20:23:14.087Z,16.50
2023-03-16T20:25:42.908Z,18.10
2023-03-16T20:28:18.918Z,18.90
2023-03-16T20:30:47.807Z,18.20
2023-03-16T20:33:38.132Z,17.40
2023-03-16T20:36:10.826Z,16.20
2023-03-16T20:38:39.723Z,19.40
2023-03-16T20:41:13.974Z,15.70
2023-03-16T20:43:43.027Z,13.50
2023-03-16T20:46:17.376Z,13.10
2023-03-16T20:48:46.285Z,15.50
2023-03-16T20:51:18.918Z,14.30
2023-03-16T20:53:51.518Z,10.10
2023-03-16T20:56:22.328Z,14.10
2023-03-16T20:58:54.777Z,16.30
2023-03-16T21:01:23.610Z,14.30
2023-03-16T21:03:55.469Z,14.80
2023-03-16T21:06:30.020Z,15.20
2023-03-16T21:09:00.125Z,15.00
2023-03-16T21:11:35.222Z,14.10
2023-03-16T21:14:05.078Z,13.20
2023-03-16T21:16:34.139Z,13.60
2023-03-16T21:19:02.783Z,15.30
2023-03-16T21:21:31.811Z,14.30
2023-03-16T21:24:04.518Z,15.60
2023-03-16T21:26:34.099Z,13.80
2023-03-16T21:29:06.746Z,12.30
2023-03-16T21:31:37.363Z,14.50
2023-03-16T21:34:06.161Z,12.70
2023-03-16T21:36:34.611Z,12.30
2023-03-16T21:39:06.536Z,14.50
2023-03-16T21:41:35.686Z,12.10
2023-03-16T21:44:07.677Z,13.40
2023-03-16T21:46:37.361Z,9.50
2023-03-16T21:49:06.586Z,10.10
2023-03-16T21:51:36.279Z,10.40
2023-03-16T21:54:07.804Z,8.20
2023-03-16T21:56:42.096Z,12.00
2023-03-16T21:59:10.942Z,10.30
2023-03-16T22:01:54.678Z,10.10
2023-03-16T22:04:29.946Z,9.70
2023-03-16T22:06:58.176Z,13.20
2023-03-16T22:09:30.421Z,8.00
2023-03-16T22:11:59.281Z,9.50
2023-03-16T22:14:31.609Z,6.50
2023-03-16T22:17:03.082Z,6.80
2023-03-16T22:19:32.148Z,6.60
2023-03-16T22:22:03.671Z,6.80
2023-03-16T22:24:36.032Z,9.90
2023-03-16T22:27:04.692Z,6.90
2023-03-16T22:29:34.927Z,5.90
2023-03-16T22:32:07.101Z,6.80
2023-03-16T22:34:45.720Z,4.50
2023-03-16T22:37:21.118Z,4.00
2023-03-16T22:39:49.872Z,7.90
2023-03-16T22:42:33.433Z,6.20
2023-03-16T22:45:02.587Z,7.50
2023-03-16T22:47:37.076Z,4.10
2023-03-16T22:50:07.461Z,6.90
2023-03-16T22:52:35.676Z,4.30
2023-03-16T22:55:04.650Z,6.70
2023-03-16T22:57:32.954Z,5.60
2023-03-16T23:00:01.339Z,4.30
2023-03-16T23:02:30.898Z,4.70
2023-03-16T23:04:59.141Z,4.60
2023-03-16T23:07:28.202Z,5.60
2023-03-16T23:09:56.925Z,6.70
2023-03-16T23:12:27.126Z,5.90
2023-03-16T23:14:56.306Z,7.50
2023-03-16T23:17:24.504Z,6.20
2023-03-16T23:19:54.808Z,9.20
2023-03-16T23:22:24.213Z,10.40
2023-03-16T23:24:52.530Z,7.40
2023-03-16T23:27:21.759Z,6.40
2023-03-16T23:29:49.991Z,5.60
2023-03-16T23:32:18.197Z,6.20
2023-03-16T23:34:46.569Z,8.20
2023-03-16T23:37:15.923Z,6.50
2023-03-16T23:39:44.844Z,7.00
2023-03-16T23:42:13.010Z,5.10
2023-03-16T23:44:42.818Z,7.00
2023-03-16T23:47:11.449Z,5.50
2023-03-16T23:49:40.122Z,3.30
2023-03-16T23:52:09.979Z,7.00
2023-03-16T23:54:38.549Z,6.20
2023-03-16T23:57:08.943Z,4.40
2023-03-16T23:59:37.258Z,9.90
